createdAt,value
2023-04-30T00:01:09.065Z,100242.38
2023-04-30T00:04:11.454Z,100249.69
2023-04-30T00:07:14.398Z,100247.19
2023-04-30T00:10:16.513Z,100254.63
2023-04-30T00:13:19.112Z,100252.47
2023-04-30T00:16:21.393Z,100252.75
2023-04-30T00:19:23.602Z,100249.91
2023-04-30T00:22:25.864Z,100255.78
2023-04-30T00:25:28.106Z,100247.59
2023-04-30T00:28:30.661Z,100249.47
2023-04-30T00:31:33.094Z,100253.06
2023-04-30T00:34:35.373Z,100248.47
2023-04-30T00:37:37.797Z,100252.44
2023-04-30T00:40:42.242Z,100256.72
2023-04-30T00:43:46.894Z,100257.00
2023-04-30T00:46:49.203Z,100254.44
2023-04-30T00:49:52.025Z,100253.84
2023-04-30T00:52:54.756Z,100255.53
2023-04-30T00:55:56.969Z,100253.66
2023-04-30T00:58:59.651Z,100254.88
2023-04-30T01:02:03.237Z,100245.56
2023-04-30T01:05:06.841Z,100249.97
2023-04-30T01:08:10.752Z,100248.72
2023-04-30T01:11:23.070Z,100242.66
2023-04-30T01:14:39.101Z,100232.75
2023-04-30T01:17:53.566Z,100241.69
2023-04-30T01:21:03.462Z,100236.72
2023-04-30T01:24:15.058Z,100237.66
2023-04-30T01:27:42.200Z,100239.47
2023-04-30T01:30:45.016Z,100243.63
2023-04-30T01:33:47.516Z,100243.63
2023-04-30T01:37:08.042Z,100242.66
2023-04-30T01:40:21.206Z,100246.75
2023-04-30T01:43:35.744Z,100253.06
2023-04-30T01:46:38.296Z,100250.41
2023-04-30T01:50:05.768Z,100255.88
2023-04-30T01:53:12.206Z,100252.47
2023-04-30T01:56:32.960Z,100246.63
2023-04-30T01:59:36.452Z,100247.03
2023-04-30T02:02:39.340Z,100246.56
2023-04-30T02:05:41.691Z,100243.53
2023-04-30T02:08:43.966Z,100256.50
2023-04-30T02:11:46.196Z,100254.31
2023-04-30T02:14:48.565Z,100251.25
2023-04-30T02:17:50.865Z,100242.19
2023-04-30T02:20:53.147Z,100237.34
2023-04-30T02:23:55.520Z,100239.88
2023-04-30T02:26:57.817Z,100244.59
2023-04-30T02:30:00.381Z,100242.06
2023-04-30T02:33:03.608Z,100247.03
2023-04-30T02:36:06.223Z,100258.19
2023-04-30T02:39:09.193Z,100254.81
2023-04-30T02:42:11.376Z,100252.50
2023-04-30T02:45:13.751Z,100256.63
2023-04-30T02:48:16.038Z,100251.78
2023-04-30T02:51:18.264Z,100258.13
2023-04-30T02:54:20.548Z,100260.78
2023-04-30T02:57:24.460Z,100264.97
2023-04-30T03:00:27.194Z,100261.63
2023-04-30T03:03:29.480Z,100277.00
2023-04-30T03:06:32.581Z,100275.28
2023-04-30T03:09:34.900Z,100268.50
2023-04-30T03:12:37.171Z,100268.00
2023-04-30T03:15:39.417Z,100258.94
2023-04-30T03:18:41.650Z,100255.56
2023-04-30T03:21:43.876Z,100264.50
2023-04-30T03:24:46.516Z,100260.41
2023-04-30T03:27:48.890Z,100255.44
2023-04-30T03:30:51.183Z,100261.16
2023-04-30T03:33:53.493Z,100263.56
2023-04-30T03:36:55.887Z,100258.47
2023-04-30T03:39:58.138Z,100259.69
2023-04-30T03:43:00.397Z,100267.19
2023-04-30T03:46:03.115Z,100273.47
2023-04-30T03:49:05.720Z,100269.81
2023-04-30T03:52:08.054Z,100265.97
2023-04-30T03:55:10.745Z,100269.47
2023-04-30T03:58:13.102Z,100269.72
2023-04-30T04:01:15.661Z,100265.84
2023-04-30T04:04:18.315Z,100271.53
2023-04-30T04:07:20.668Z,100277.59
2023-04-30T04:10:22.968Z,100280.97
2023-04-30T04:13:25.336Z,100284.97
2023-04-30T04:16:27.628Z,100293.09
2023-04-30T04:19:29.964Z,100295.00
2023-04-30T04:22:33.270Z,100294.25
2023-04-30T04:25:36.281Z,100294.28
2023-04-30T04:28:39.154Z,100298.63
2023-04-30T04:31:42.894Z,100301.75
2023-04-30T04:34:47.306Z,100296.00
2023-04-30T04:37:49.621Z,100306.75
2023-04-30T04:40:55.812Z,100309.66
2023-04-30T04:44:00.110Z,100316.16
2023-04-30T04:47:04.359Z,100313.97
2023-04-30T04:50:08.351Z,100324.59
2023-04-30T04:53:10.880Z,100329.16
2023-04-30T04:56:14.019Z,100320.38
2023-04-30T04:59:17.538Z,100328.34
2023-04-30T05:02:21.304Z,100325.84
2023-04-30T05:05:23.659Z,100330.66
2023-04-30T05:08:26.213Z,100338.41
2023-04-30T05:11:28.725Z,100343.69
2023-04-30T05:14:31.055Z,100345.19
2023-04-30T05:17:33.319Z,100350.06
2023-04-30T05:20:35.714Z,100342.97
2023-04-30T05:23:38.434Z,100335.16
2023-04-30T05:26:40.666Z,100343.22
2023-04-30T05:29:42.927Z,100342.78
2023-04-30T05:32:50.837Z,100340.22
2023-04-30T05:35:53.161Z,100348.94
2023-04-30T05:38:55.419Z,100341.66
2023-04-30T05:41:57.681Z,100342.03
2023-04-30T05:44:59.902Z,100347.72
2023-04-30T05:48:02.298Z,100335.47
2023-04-30T05:51:06.598Z,100343.78
2023-04-30T05:54:08.834Z,100347.31
2023-04-30T05:57:11.125Z,100344.81
2023-04-30T06:00:13.969Z,100347.72
2023-04-30T06:03:16.148Z,100350.66
2023-04-30T06:06:18.301Z,100353.28
2023-04-30T06:09:20.695Z,100357.75
2023-04-30T06:12:23.391Z,100360.66
2023-04-30T06:15:25.706Z,100357.34
2023-04-30T06:18:28.025Z,100351.31
2023-04-30T06:21:30.748Z,100357.94
2023-04-30T06:24:32.891Z,100347.94
2023-04-30T06:27:35.153Z,100338.63
2023-04-30T06:30:37.418Z,100339.91
2023-04-30T06:33:39.697Z,100336.53
2023-04-30T06:36:42.061Z,100332.41
2023-04-30T06:39:44.470Z,100346.22
2023-04-30T06:42:47.739Z,100339.72
2023-04-30T06:45:50.227Z,100338.47
2023-04-30T06:48:52.340Z,100335.81
2023-04-30T06:51:56.129Z,100328.72
2023-04-30T06:54:58.358Z,100331.63
2023-04-30T06:58:00.635Z,100324.97
2023-04-30T07:01:03.452Z,100323.88
2023-04-30T07:04:05.606Z,100318.88
2023-04-30T07:07:07.871Z,100315.88
2023-04-30T07:10:10.412Z,100321.59
2023-04-30T07:13:12.669Z,100315.94
2023-04-30T07:16:17.014Z,100320.28
2023-04-30T07:19:19.620Z,100316.47
2023-04-30T07:22:22.068Z,100325.63
2023-04-30T07:25:24.403Z,100330.47
2023-04-30T07:28:26.506Z,100335.25
2023-04-30T07:31:28.733Z,100327.38
2023-04-30T07:34:30.895Z,100328.66
2023-04-30T07:37:35.319Z,100322.25
2023-04-30T07:40:38.137Z,100327.47
2023-04-30T07:43:40.349Z,100343.78
2023-04-30T07:46:42.783Z,100336.97
2023-04-30T07:49:47.143Z,100339.63
2023-04-30T07:52:50.690Z,100340.47
2023-04-30T07:55:53.112Z,100343.69
2023-04-30T07:58:55.785Z,100345.91
2023-04-30T08:01:58.424Z,100347.88
2023-04-30T08:05:00.858Z,100349.72
2023-04-30T08:08:04.070Z,100352.41
2023-04-30T08:11:06.604Z,100346.44
2023-04-30T08:14:08.842Z,100359.94
2023-04-30T08:17:12.084Z,100355.91
2023-04-30T08:20:14.322Z,100356.28
2023-04-30T08:23:17.014Z,100355.19
2023-04-30T08:26:19.273Z,100349.53
2023-04-30T08:29:21.651Z,100356.19
2023-04-30T08:32:24.019Z,100348.56
2023-04-30T08:35:26.328Z,100354.69
2023-04-30T08:38:28.618Z,100355.03
2023-04-30T08:41:33.976Z,100362.22
2023-04-30T08:44:39.821Z,100355.06
2023-04-30T08:47:42.213Z,100369.16
2023-04-30T08:50:44.666Z,100357.19
2023-04-30T08:53:47.042Z,100369.75
2023-04-30T08:56:49.992Z,100360.94
2023-04-30T08:59:52.179Z,100368.19
2023-04-30T09:02:54.576Z,100358.06
2023-04-30T09:05:57.228Z,100363.34
2023-04-30T09:09:09.268Z,100357.88
2023-04-30T09:12:20.011Z,100361.91
2023-04-30T09:15:22.848Z,100355.34
2023-04-30T09:18:25.022Z,100362.03
2023-04-30T09:21:34.874Z,100352.53
2023-04-30T09:24:48.207Z,100352.09
2023-04-30T09:28:07.641Z,100359.63
2023-04-30T09:31:22.058Z,100350.75
2023-04-30T09:34:35.574Z,100354.13
2023-04-30T09:37:38.730Z,100338.19
2023-04-30T09:40:42.653Z,100346.00
2023-04-30T09:43:45.457Z,100346.28
2023-04-30T09:46:50.966Z,100337.44
2023-04-30T09:49:53.737Z,100338.28
2023-04-30T09:53:06.432Z,100343.84
2023-04-30T09:56:08.942Z,100341.38
2023-04-30T09:59:12.612Z,100336.81
2023-04-30T10:02:16.900Z,100333.56
2023-04-30T10:05:19.469Z,100341.75
2023-04-30T10:08:28.921Z,100329.59
2023-04-30T10:11:33.108Z,100335.25
2023-04-30T10:14:35.628Z,100336.66
2023-04-30T10:17:41.273Z,100332.78
2023-04-30T10:20:44.849Z,100327.88
2023-04-30T10:23:47.235Z,100324.69
2023-04-30T10:26:49.960Z,100331.38
2023-04-30T10:29:52.542Z,100328.41
2023-04-30T10:33:15.691Z,100332.78
2023-04-30T10:36:27.140Z,100327.66
2023-04-30T10:39:29.634Z,100321.06
2023-04-30T10:42:35.387Z,100324.94
2023-04-30T10:45:39.129Z,100312.06
2023-04-30T10:48:41.522Z,100311.22
2023-04-30T10:51:48.458Z,100307.03
2023-04-30T10:54:51.893Z,100316.38
2023-04-30T10:57:55.547Z,100314.19
2023-04-30T11:01:17.496Z,100321.97
2023-04-30T11:04:19.936Z,100315.63
2023-04-30T11:07:25.969Z,100316.88
2023-04-30T11:10:32.772Z,100308.34
2023-04-30T11:13:42.570Z,100317.84
2023-04-30T11:16:49.371Z,100323.25
2023-04-30T11:19:53.941Z,100317.50
2023-04-30T11:23:14.216Z,100321.16
2023-04-30T11:26:20.126Z,100328.91
2023-04-30T11:29:22.712Z,100327.09
2023-04-30T11:32:26.277Z,100320.19
2023-04-30T11:35:28.850Z,100321.38
2023-04-30T11:38:32.257Z,100317.16
2023-04-30T11:41:41.704Z,100316.03
2023-04-30T11:44:44.064Z,100317.22
2023-04-30T11:47:49.376Z,100317.22
2023-04-30T11:50:52.441Z,100315.69
2023-04-30T11:53:54.860Z,100318.56
2023-04-30T11:57:03.814Z,100315.88
2023-04-30T12:00:29.455Z,100315.56
2023-04-30T12:03:32.373Z,100307.78
2023-04-30T12:06:35.201Z,100311.84
2023-04-30T12:09:54.888Z,100308.78
2023-04-30T12:12:57.501Z,100309.47
2023-04-30T12:16:00.852Z,100304.75
2023-04-30T12:19:03.930Z,100302.41
2023-04-30T12:22:06.664Z,100300.06
2023-04-30T12:25:14.115Z,100297.03
2023-04-30T12:28:16.574Z,100302.41
2023-04-30T12:31:18.943Z,100301.06
2023-04-30T12:34:21.271Z,100293.31
2023-04-30T12:37:23.549Z,100289.44
2023-04-30T12:40:27.431Z,100289.78
2023-04-30T12:43:30.057Z,100286.75
2023-04-30T12:46:32.202Z,100283.03
2023-04-30T12:49:34.633Z,100282.19
2023-04-30T12:52:37.481Z,100271.75
2023-04-30T12:55:39.821Z,100273.78
2023-04-30T12:58:47.561Z,100268.91
2023-04-30T13:01:49.915Z,100272.13
2023-04-30T13:04:53.338Z,100258.47
2023-04-30T13:08:02.199Z,100262.31
2023-04-30T13:11:04.394Z,100257.13
2023-04-30T13:14:06.685Z,100260.00
2023-04-30T13:17:10.927Z,100254.59
2023-04-30T13:20:13.587Z,100256.63
2023-04-30T13:23:15.829Z,100258.00
2023-04-30T13:26:18.011Z,100249.06
2023-04-30T13:29:22.837Z,100259.53
2023-04-30T13:32:25.134Z,100259.53
2023-04-30T13:35:28.035Z,100260.06
2023-04-30T13:38:30.470Z,100252.50
2023-04-30T13:41:32.839Z,100256.72
2023-04-30T13:44:36.698Z,100251.00
2023-04-30T13:47:39.263Z,100254.69
2023-04-30T13:50:41.564Z,100249.13
2023-04-30T13:53:43.771Z,100257.72
2023-04-30T13:56:46.008Z,100264.09
2023-04-30T13:59:49.017Z,100252.16
2023-04-30T14:02:51.697Z,100256.50
2023-04-30T14:05:54.768Z,100257.03
2023-04-30T14:08:56.959Z,100250.63
2023-04-30T14:11:59.643Z,100262.06
2023-04-30T14:15:02.219Z,100253.97
2023-04-30T14:18:04.561Z,100244.19
2023-04-30T14:21:07.757Z,100243.81
2023-04-30T14:24:12.555Z,100251.91
2023-04-30T14:27:14.855Z,100248.72
2023-04-30T14:30:17.307Z,100249.06
2023-04-30T14:33:19.983Z,100243.69
2023-04-30T14:36:22.224Z,100252.28
2023-04-30T14:39:24.568Z,100249.28
2023-04-30T14:42:26.943Z,100252.97
2023-04-30T14:45:29.608Z,100248.44
2023-04-30T14:48:32.793Z,100253.66
2023-04-30T14:51:35.069Z,100253.81
2023-04-30T14:54:37.391Z,100254.50
2023-04-30T14:57:39.715Z,100269.81
2023-04-30T15:00:42.303Z,100267.81
2023-04-30T15:03:44.844Z,100271.50
2023-04-30T15:06:47.210Z,100268.50
2023-04-30T15:09:49.453Z,100274.53
2023-04-30T15:12:51.743Z,100297.44
2023-04-30T15:15:54.061Z,100308.53
2023-04-30T15:18:56.336Z,100304.81
2023-04-30T15:21:58.576Z,100318.22
2023-04-30T15:25:00.983Z,100323.47
2023-04-30T15:28:03.380Z,100332.16
2023-04-30T15:31:06.498Z,100328.34
2023-04-30T15:34:08.855Z,100338.00
2023-04-30T15:37:11.526Z,100341.34
2023-04-30T15:40:15.630Z,100358.72
2023-04-30T15:43:18.130Z,100352.97
2023-04-30T15:46:20.610Z,100352.88
2023-04-30T15:49:25.890Z,100364.91
2023-04-30T15:52:28.144Z,100350.34
2023-04-30T15:55:30.802Z,100358.06
2023-04-30T15:58:33.034Z,100366.00
2023-04-30T16:01:35.404Z,100358.59
2023-04-30T16:04:37.729Z,100363.56
2023-04-30T16:07:43.641Z,100363.56
2023-04-30T16:10:46.159Z,100369.22
2023-04-30T16:13:48.381Z,100369.59
2023-04-30T16:16:50.684Z,100373.75
2023-04-30T16:19:53.225Z,100377.03
2023-04-30T16:22:56.400Z,100376.34
2023-04-30T16:25:58.864Z,100367.50
2023-04-30T16:29:01.768Z,100363.81
2023-04-30T16:32:04.285Z,100374.97
2023-04-30T16:35:08.350Z,100373.34
2023-04-30T16:38:10.942Z,100372.34
2023-04-30T16:41:14.968Z,100379.25
2023-04-30T16:44:17.212Z,100373.06
2023-04-30T16:47:19.622Z,100369.06
2023-04-30T16:50:24.194Z,100376.84
2023-04-30T16:53:26.409Z,100381.19
2023-04-30T16:56:28.678Z,100379.53
2023-04-30T16:59:31.129Z,100381.34
2023-04-30T17:02:33.663Z,100378.97
2023-04-30T17:05:36.980Z,100376.13
2023-04-30T17:08:40.380Z,100378.13
2023-04-30T17:11:42.622Z,100370.78
2023-04-30T17:14:44.873Z,100384.09
2023-04-30T17:17:47.245Z,100374.69
2023-04-30T17:20:49.770Z,100383.91
2023-04-30T17:23:52.294Z,100388.75
2023-04-30T17:26:55.002Z,100387.06
2023-04-30T17:29:57.589Z,100394.25
2023-04-30T17:33:00.994Z,100391.56
2023-04-30T17:36:03.356Z,100393.91
2023-04-30T17:39:05.887Z,100397.06
2023-04-30T17:42:08.203Z,100395.13
2023-04-30T17:45:11.032Z,100398.78
2023-04-30T17:48:13.180Z,100396.72
2023-04-30T17:51:15.439Z,100401.38
2023-04-30T17:54:17.742Z,100399.38
2023-04-30T17:57:19.968Z,100400.09
2023-04-30T18:00:22.254Z,100405.00
2023-04-30T18:03:24.901Z,100410.06
2023-04-30T18:06:28.088Z,100405.28
2023-04-30T18:09:32.203Z,100411.22
2023-04-30T18:12:35.852Z,100419.09
2023-04-30T18:15:38.084Z,100426.13
2023-04-30T18:18:41.094Z,100417.41
2023-04-30T18:21:43.408Z,100424.75
2023-04-30T18:24:45.744Z,100427.44
2023-04-30T18:27:48.126Z,100431.09
2023-04-30T18:30:50.511Z,100440.28
2023-04-30T18:33:52.772Z,100446.75
2023-04-30T18:36:55.546Z,100451.88
2023-04-30T18:40:00.288Z,100454.25
2023-04-30T18:43:02.470Z,100453.84
2023-04-30T18:46:05.992Z,100464.56
2023-04-30T18:49:09.410Z,100466.81
2023-04-30T18:52:11.700Z,100462.59
2023-04-30T18:55:14.448Z,100474.16
2023-04-30T18:58:16.756Z,100478.53
2023-04-30T19:01:21.502Z,100483.03
2023-04-30T19:04:23.969Z,100485.00
2023-04-30T19:07:26.432Z,100488.00
2023-04-30T19:10:28.731Z,100485.47
2023-04-30T19:13:31.656Z,100487.56
2023-04-30T19:16:34.232Z,100487.09
2023-04-30T19:19:36.527Z,100492.06
2023-04-30T19:22:41.961Z,100494.88
2023-04-30T19:25:47.840Z,100498.78
2023-04-30T19:28:50.119Z,100495.84
2023-04-30T19:31:52.601Z,100492.44
2023-04-30T19:34:55.056Z,100494.41
2023-04-30T19:37:57.324Z,100506.50
2023-04-30T19:41:00.617Z,100509.56
2023-04-30T19:44:03.100Z,100508.19
2023-04-30T19:47:05.367Z,100507.59
2023-04-30T19:50:08.420Z,100514.19
2023-04-30T19:53:11.517Z,100513.47
2023-04-30T19:56:14.029Z,100516.16
2023-04-30T19:59:18.982Z,100515.16
2023-04-30T20:02:21.431Z,100520.25
2023-04-30T20:05:23.685Z,100520.00
2023-04-30T20:08:25.945Z,100518.31
2023-04-30T20:11:28.310Z,100523.78
2023-04-30T20:14:31.107Z,100530.97
2023-04-30T20:17:36.165Z,100522.22
2023-04-30T20:20:38.428Z,100528.56
2023-04-30T20:23:41.069Z,100528.72
2023-04-30T20:26:43.522Z,100529.53
2023-04-30T20:29:49.435Z,100536.03
2023-04-30T20:32:51.802Z,100550.25
2023-04-30T20:35:55.464Z,100548.69
2023-04-30T20:38:58.377Z,100549.81
2023-04-30T20:42:01.535Z,100556.53
2023-04-30T20:45:05.786Z,100558.78
2023-04-30T20:48:09.132Z,100558.72
2023-04-30T20:51:11.480Z,100564.38
2023-04-30T20:54:13.864Z,100567.72
2023-04-30T20:57:16.926Z,100575.41
2023-04-30T21:00:19.391Z,100562.44
2023-04-30T21:03:21.715Z,100569.72
2023-04-30T21:06:24.403Z,100573.97
2023-04-30T21:09:26.756Z,100577.38
2023-04-30T21:12:29.662Z,100590.88
2023-04-30T21:15:32.369Z,100598.75
2023-04-30T21:18:34.538Z,100605.56
2023-04-30T21:21:36.768Z,100607.94
2023-04-30T21:24:39.816Z,100607.69
2023-04-30T21:27:42.161Z,100615.00
2023-04-30T21:30:44.803Z,100619.91
2023-04-30T21:33:48.135Z,100624.03
2023-04-30T21:36:51.891Z,100620.09
2023-04-30T21:39:56.302Z,100628.22
2023-04-30T21:42:59.063Z,100625.06
2023-04-30T21:46:02.935Z,100630.72
2023-04-30T21:49:05.221Z,100635.03
2023-04-30T21:52:08.398Z,100635.31
2023-04-30T21:55:11.088Z,100637.41
2023-04-30T21:58:13.322Z,100645.81
2023-04-30T22:01:15.666Z,100653.22
2023-04-30T22:04:18.078Z,100647.38
2023-04-30T22:07:20.365Z,100653.31
2023-04-30T22:10:22.648Z,100650.50
2023-04-30T22:13:25.853Z,100658.91
2023-04-30T22:16:28.503Z,100654.16
2023-04-30T22:19:31.062Z,100660.00
2023-04-30T22:22:33.914Z,100660.25
2023-04-30T22:25:36.252Z,100654.91
2023-04-30T22:28:38.594Z,100662.91
2023-04-30T22:31:40.855Z,100654.91
2023-04-30T22:34:43.137Z,100669.47
2023-04-30T22:37:45.922Z,100667.78
2023-04-30T22:40:48.240Z,100665.06
2023-04-30T22:43:50.575Z,100666.44
2023-04-30T22:46:53.644Z,100669.69
2023-04-30T22:49:56.609Z,100671.41
2023-04-30T22:52:59.438Z,100664.47
2023-04-30T22:56:01.803Z,100675.03
2023-04-30T22:59:04.200Z,100669.22
2023-04-30T23:02:06.417Z,100667.25
2023-04-30T23:05:08.906Z,100672.59
2023-04-30T23:08:11.577Z,100663.38
2023-04-30T23:11:13.801Z,100673.94
2023-04-30T23:14:16.350Z,100677.69
2023-04-30T23:17:18.631Z,100682.41
2023-04-30T23:20:21.002Z,100685.81
2023-04-30T23:23:23.557Z,100687.75
2023-04-30T23:26:25.851Z,100688.81
2023-04-30T23:29:28.396Z,100681.81
2023-04-30T23:32:31.622Z,100681.31
2023-04-30T23:35:33.892Z,100682.50
2023-04-30T23:38:36.163Z,100684.44
2023-04-30T23:41:38.447Z,100694.13
2023-04-30T23:44:40.761Z,100683.69
2023-04-30T23:47:43.039Z,100687.34
2023-04-30T23:50:45.388Z,100685.88
2023-04-30T23:53:47.674Z,100682.47
2023-04-30T23:56:50.168Z,100687.56
2023-04-30T23:59:52.553Z,100683.31
